createdAt,value
2018-02-06T00:02:30.643Z,34.03
2018-02-06T00:05:03.749Z,26.20
2018-02-06T00:07:36.912Z,23.67
2018-02-06T00:10:10.365Z,32.20
2018-02-06T00:12:47.864Z,30.93
2018-02-06T00:15:21.271Z,27.27
2018-02-06T00:17:54.319Z,27.50
2018-02-06T00:20:27.474Z,29.60
2018-02-06T00:23:01.980Z,21.67
2018-02-06T00:25:35.218Z,23.93
2018-02-06T00:28:08.465Z,26.13
2018-02-06T00:30:41.743Z,24.43
2018-02-06T00:33:19.246Z,23.93
2018-02-06T00:35:52.557Z,27.93
2018-02-06T00:38:25.852Z,26.23
2018-02-06T00:40:59.396Z,25.93
2018-02-06T00:43:34.415Z,28.33
2018-02-06T00:46:07.959Z,26.77
2018-02-06T00:48:41.360Z,26.37
2018-02-06T00:51:14.552Z,25.33
2018-02-06T00:53:47.752Z,22.73
2018-02-06T00:56:21.001Z,32.80
2018-02-06T00:58:54.240Z,29.53
2018-02-06T01:01:27.455Z,31.50
2018-02-06T01:04:01.912Z,32.20
2018-02-06T01:06:35.131Z,25.93
2018-02-06T01:09:08.448Z,27.10
2018-02-06T01:11:41.743Z,22.30
2018-02-06T01:14:16.073Z,24.80
2018-02-06T01:16:49.526Z,23.70
2018-02-06T01:19:22.964Z,24.40
2018-02-06T01:21:56.404Z,24.50
2018-02-06T01:24:29.990Z,24.27
2018-02-06T01:27:03.294Z,26.20
2018-02-06T01:29:36.560Z,24.07
2018-02-06T01:32:10.768Z,26.93
2018-02-06T01:34:44.625Z,26.27
2018-02-06T01:37:17.996Z,26.10
2018-02-06T01:39:51.268Z,26.90
2018-02-06T01:42:25.705Z,23.00
2018-02-06T01:44:58.940Z,25.63
2018-02-06T01:47:32.582Z,26.07
2018-02-06T01:50:05.924Z,25.80
2018-02-06T01:52:43.205Z,25.53
2018-02-06T01:55:16.506Z,26.63
2018-02-06T01:57:49.666Z,21.40
2018-02-06T02:00:22.992Z,21.97
2018-02-06T02:03:00.157Z,20.87
2018-02-06T02:05:33.456Z,20.37
2018-02-06T02:08:06.737Z,19.07
2018-02-06T02:10:40.065Z,18.63
2018-02-06T02:13:18.424Z,16.83
2018-02-06T02:15:51.573Z,19.30
2018-02-06T02:18:24.805Z,17.37
2018-02-06T02:20:58.190Z,18.17
2018-02-06T02:23:32.551Z,22.43
2018-02-06T02:26:05.766Z,19.70
2018-02-06T02:28:39.187Z,22.23
2018-02-06T02:31:13.376Z,17.97
2018-02-06T02:33:50.156Z,20.80
2018-02-06T02:36:23.551Z,20.63
2018-02-06T02:38:56.806Z,18.47
2018-02-06T02:41:30.192Z,24.57
2018-02-06T04:39:19.317Z,27.47
2018-02-06T04:41:53.712Z,23.93
2018-02-06T04:44:26.902Z,26.40
2018-02-06T04:47:00.224Z,26.20
2018-02-06T04:49:33.493Z,29.23
2018-02-06T04:52:11.030Z,22.47
2018-02-06T04:54:44.170Z,23.33
2018-02-06T04:57:17.660Z,25.30
2018-02-06T04:59:50.895Z,31.13
2018-02-06T05:02:25.362Z,42.47
2018-02-06T05:04:58.533Z,38.83
2018-02-06T05:07:31.866Z,27.80
2018-02-06T05:10:05.356Z,28.00
2018-02-06T05:12:40.007Z,30.17
2018-02-06T05:15:13.042Z,35.23
2018-02-06T05:17:47.220Z,53.67
2018-02-06T05:20:20.709Z,37.70
2018-02-06T05:22:57.831Z,60.57
2018-02-06T05:25:31.672Z,30.67
2018-02-06T05:28:04.548Z,48.13
2018-02-06T05:30:37.708Z,33.20
2018-02-06T05:33:11.132Z,27.33
2018-02-06T05:35:44.412Z,27.27
2018-02-06T05:38:17.689Z,33.50
2018-02-06T05:40:50.936Z,25.77
2018-02-06T05:43:28.071Z,41.63
2018-02-06T05:46:01.267Z,31.83
2018-02-06T05:48:34.552Z,31.60
2018-02-06T05:51:07.809Z,42.17
2018-02-06T05:53:41.197Z,31.87
2018-02-06T05:56:15.396Z,32.40
2018-02-06T05:58:48.553Z,34.67
2018-02-06T06:01:23.050Z,30.13
2018-02-06T06:03:56.299Z,24.60
2018-02-06T06:06:29.489Z,33.77
2018-02-06T06:09:02.802Z,36.60
2018-02-06T06:11:37.164Z,48.13
2018-02-06T06:14:10.431Z,65.20
2018-02-06T06:16:43.512Z,66.83
2018-02-06T06:19:16.851Z,82.73
2018-02-06T06:21:54.078Z,93.47
2018-02-06T06:24:27.449Z,76.60
2018-02-06T06:27:01.755Z,91.23
2018-02-06T06:29:35.043Z,61.07
2018-02-06T06:32:09.572Z,48.17
2018-02-06T06:34:42.817Z,56.60
2018-02-06T06:37:16.080Z,33.00
2018-02-06T06:39:49.379Z,43.27
2018-02-06T06:42:26.612Z,40.83
2018-02-06T06:44:59.973Z,40.87
2018-02-06T06:47:33.473Z,54.23
2018-02-06T06:50:06.652Z,43.27
2018-02-06T06:52:40.175Z,32.93
2018-02-06T06:55:13.528Z,24.73
2018-02-06T06:57:46.934Z,25.50
2018-02-06T07:00:20.411Z,24.03
2018-02-06T07:02:53.779Z,22.90
2018-02-06T07:05:27.251Z,48.70
2018-02-06T07:08:00.656Z,54.93
2018-02-06T07:10:34.048Z,29.13
2018-02-06T07:13:08.741Z,49.33
2018-02-06T07:15:41.590Z,45.57
2018-02-06T07:18:15.180Z,43.87
2018-02-06T07:20:48.727Z,56.87
2018-02-06T07:23:23.662Z,35.40
2018-02-06T07:25:57.314Z,28.80
2018-02-06T07:28:30.734Z,25.00
2018-02-06T07:31:04.600Z,27.90
2018-02-06T07:33:38.344Z,38.57
2018-02-06T07:36:12.187Z,21.67
2018-02-06T07:38:45.696Z,25.53
2018-02-06T07:41:19.448Z,19.23
2018-02-06T07:43:52.941Z,22.57
2018-02-06T07:47:59.896Z,25.77
2018-02-06T07:50:33.229Z,31.60
2018-02-06T07:53:06.505Z,20.93
2018-02-06T07:55:39.786Z,22.37
2018-02-06T07:58:13.156Z,21.00
2018-02-06T08:00:46.413Z,19.70
2018-02-06T08:03:20.596Z,19.13
2018-02-06T08:05:53.929Z,18.17
2018-02-06T08:08:27.212Z,18.73
2018-02-06T08:11:00.565Z,20.63
2018-02-06T08:13:37.117Z,18.57
2018-02-06T08:16:10.262Z,20.67
2018-02-06T08:18:43.564Z,20.50
2018-02-06T08:21:16.833Z,18.30
2018-02-06T08:23:56.096Z,17.33
2018-02-06T08:26:29.732Z,16.93
2018-02-06T08:29:03.316Z,18.50
2018-02-06T08:31:36.752Z,21.97
2018-02-06T08:34:14.109Z,16.40
2018-02-06T08:36:47.460Z,16.83
2018-02-06T08:39:20.903Z,16.57
2018-02-06T08:41:54.457Z,16.50
2018-02-06T08:44:29.033Z,18.47
2018-02-06T08:47:02.163Z,15.57
2018-02-06T08:49:35.680Z,12.97
2018-02-06T08:52:09.844Z,15.33
2018-02-06T08:54:46.473Z,12.20
2018-02-06T08:57:19.753Z,13.37
2018-02-06T08:59:53.198Z,17.07
2018-02-06T09:02:26.501Z,13.93
2018-02-06T09:05:03.717Z,17.50
2018-02-06T09:07:37.175Z,15.03
2018-02-06T09:10:11.214Z,18.40
2018-02-06T09:12:44.714Z,16.97
2018-02-06T09:15:18.159Z,24.90
2018-02-06T09:17:51.441Z,22.20
2018-02-06T09:20:24.850Z,12.03
2018-02-06T09:22:58.229Z,18.40
2018-02-06T09:25:31.483Z,12.97
2018-02-06T09:28:05.912Z,12.40
2018-02-06T09:30:39.559Z,10.37
2018-02-06T09:33:16.352Z,10.07
2018-02-06T09:35:49.772Z,8.90
2018-02-06T09:38:22.988Z,15.73
2018-02-06T09:40:56.252Z,12.50
2018-02-06T09:43:33.396Z,12.80
2018-02-06T09:46:07.493Z,13.37
2018-02-06T09:48:41.028Z,14.57
2018-02-06T09:51:14.380Z,11.83
2018-02-06T09:53:51.384Z,12.07
2018-02-06T09:56:24.620Z,15.30
2018-02-06T09:58:58.070Z,13.83
2018-02-06T10:01:31.383Z,14.80
2018-02-06T10:04:05.669Z,13.60
2018-02-06T10:06:38.905Z,17.43
2018-02-06T10:09:12.996Z,15.30
2018-02-06T10:11:46.472Z,17.07
2018-02-06T10:14:21.509Z,11.83
2018-02-06T10:16:55.847Z,17.80
2018-02-06T10:19:29.400Z,14.37
2018-02-06T10:22:02.888Z,14.40
2018-02-06T10:24:40.043Z,13.43
2018-02-06T10:27:13.336Z,13.70
2018-02-06T10:29:46.684Z,14.43
2018-02-06T10:32:20.099Z,16.97
2018-02-06T10:34:54.669Z,21.90
2018-02-06T10:37:27.884Z,14.80
2018-02-06T10:40:01.348Z,14.50
2018-02-06T10:42:34.549Z,18.27
2018-02-06T10:45:09.082Z,13.20
2018-02-06T10:47:42.198Z,13.40
2018-02-06T10:50:15.554Z,14.80
2018-02-06T10:52:48.660Z,15.37
2018-02-06T10:55:21.916Z,14.27
2018-02-06T10:57:55.337Z,12.73
2018-02-06T11:00:29.443Z,12.83
2018-02-06T11:03:03.888Z,13.13
2018-02-06T11:05:37.213Z,10.90
2018-02-06T11:08:10.542Z,18.67
2018-02-06T11:10:43.716Z,9.73
2018-02-06T11:13:18.079Z,9.37
2018-02-06T11:15:52.023Z,10.07
2018-02-06T11:18:25.532Z,10.97
2018-02-06T11:20:58.869Z,10.20
2018-02-06T11:23:36.164Z,10.87
2018-02-06T11:26:09.432Z,11.13
2018-02-06T11:28:42.775Z,9.07
2018-02-06T11:31:16.056Z,12.63
2018-02-06T11:33:50.599Z,11.10
2018-02-06T11:36:23.775Z,9.90
2018-02-06T11:38:57.172Z,8.87
2018-02-06T11:41:30.403Z,14.47
2018-02-06T11:44:03.667Z,11.07
2018-02-06T11:46:36.832Z,11.23
2018-02-06T11:49:10.082Z,13.13
2018-02-06T11:51:43.250Z,10.13
2018-02-06T11:54:17.569Z,10.60
2018-02-06T11:56:50.803Z,12.03
2018-02-06T11:59:24.154Z,9.60
2018-02-06T12:01:58.134Z,11.07
2018-02-06T12:04:32.671Z,11.80
2018-02-06T12:07:05.967Z,11.33
2018-02-06T12:09:39.881Z,9.57
2018-02-06T12:12:13.481Z,10.43
2018-02-06T12:14:54.621Z,10.80
2018-02-06T12:17:28.189Z,9.77
2018-02-06T12:20:01.542Z,10.13
2018-02-06T12:22:34.783Z,11.77
2018-02-06T12:25:08.038Z,11.97
2018-02-06T12:27:42.089Z,10.73
2018-02-06T12:30:15.608Z,10.77
2018-02-06T12:32:52.948Z,9.83
2018-02-06T12:35:26.376Z,10.33
2018-02-06T12:37:59.515Z,10.93
2018-02-06T12:40:32.871Z,10.00
2018-02-06T12:43:07.293Z,9.23
2018-02-06T12:45:40.370Z,9.67
2018-02-06T12:48:13.672Z,12.60
2018-02-06T12:50:47.105Z,11.70
2018-02-06T12:53:21.410Z,10.50
2018-02-06T12:55:54.730Z,11.47
2018-02-06T12:58:27.943Z,13.67
2018-02-06T13:01:01.311Z,13.03
2018-02-06T13:03:39.433Z,13.23
2018-02-06T13:06:12.727Z,10.87
2018-02-06T13:08:46.023Z,9.60
2018-02-06T13:11:19.210Z,11.23
2018-02-06T13:13:53.564Z,10.87
2018-02-06T13:16:26.828Z,9.80
2018-02-06T13:19:00.275Z,11.73
2018-02-06T13:21:33.468Z,11.23
2018-02-06T13:24:18.453Z,12.07
2018-02-06T13:26:51.929Z,9.73
2018-02-06T13:29:25.335Z,10.77
2018-02-06T13:31:58.598Z,10.77
2018-02-06T13:34:35.787Z,10.47
2018-02-06T13:37:09.145Z,11.60
2018-02-06T13:39:42.438Z,12.57
2018-02-06T13:42:15.819Z,13.73
2018-02-06T13:44:49.319Z,10.73
2018-02-06T13:47:22.708Z,9.77
2018-02-06T13:49:56.797Z,15.60
2018-02-06T13:52:36.185Z,11.90
2018-02-06T13:55:09.809Z,13.87
2018-02-06T13:57:46.792Z,10.77
2018-02-06T14:00:20.471Z,11.57
2018-02-06T14:02:54.840Z,9.07
2018-02-06T14:05:28.190Z,10.10
2018-02-06T14:08:01.299Z,12.43
2018-02-06T14:10:34.547Z,11.57
2018-02-06T14:13:08.848Z,11.33
2018-02-06T14:15:42.204Z,10.67
2018-02-06T14:18:15.416Z,12.13
2018-02-06T14:20:48.668Z,10.93
2018-02-06T14:23:22.887Z,11.37
2018-02-06T14:25:56.932Z,16.90
2018-02-06T14:28:31.074Z,19.87
2018-02-06T14:31:04.862Z,14.37
2018-02-06T14:33:39.160Z,11.67
2018-02-06T14:36:12.684Z,12.97
2018-02-06T14:38:46.756Z,14.63
2018-02-06T14:41:20.264Z,17.53
2018-02-06T14:43:54.626Z,16.80
2018-02-06T14:46:27.992Z,10.70
2018-02-06T14:49:01.259Z,13.07
2018-02-06T14:51:34.771Z,17.67
2018-02-06T14:54:11.045Z,12.40
2018-02-06T14:56:44.480Z,12.67
2018-02-06T14:59:17.788Z,11.03
2018-02-06T15:01:50.994Z,18.43
2018-02-06T15:04:25.299Z,28.97
2018-02-06T15:06:58.615Z,19.20
2018-02-06T15:09:31.976Z,19.83
2018-02-06T15:12:05.298Z,30.50
2018-02-06T15:14:38.659Z,20.10
2018-02-06T15:17:11.920Z,16.73
2018-02-06T15:19:46.463Z,22.43
2018-02-06T15:22:20.808Z,22.83
2018-02-06T15:24:53.822Z,24.57
2018-02-06T15:27:27.035Z,27.50
2018-02-06T15:30:00.287Z,17.47
2018-02-06T15:32:34.483Z,16.80
2018-02-06T15:35:07.787Z,32.60
2018-02-06T15:37:41.112Z,29.23
2018-02-06T15:40:14.483Z,24.57
2018-02-06T15:42:49.141Z,29.03
2018-02-06T15:45:22.141Z,18.83
2018-02-06T15:47:55.371Z,25.27
2018-02-06T15:50:28.681Z,26.37
2018-02-06T15:53:03.264Z,28.27
2018-02-06T15:55:37.101Z,27.23
2018-02-06T15:58:10.781Z,25.07
2018-02-06T16:00:46.131Z,40.23
2018-02-06T16:03:20.730Z,28.13
2018-02-06T16:05:53.890Z,28.23
2018-02-06T16:08:27.319Z,30.93
2018-02-06T16:11:00.629Z,30.93
2018-02-06T16:13:35.132Z,30.77
2018-02-06T16:16:08.413Z,26.53
2018-02-06T16:18:41.821Z,32.93
2018-02-06T16:21:15.073Z,29.83
2018-02-06T16:23:52.578Z,39.73
2018-02-06T16:26:25.988Z,34.10
2018-02-06T16:28:59.113Z,37.13
2018-02-06T16:31:32.459Z,39.73
2018-02-06T16:34:09.663Z,28.03
2018-02-06T16:36:43.024Z,50.07
2018-02-06T16:39:16.352Z,42.60
2018-02-06T16:41:49.679Z,27.23
2018-02-06T16:44:22.922Z,36.93
2018-02-06T16:46:57.096Z,32.87
2018-02-06T16:49:30.645Z,28.47
2018-02-06T16:52:05.346Z,39.90
2018-02-06T16:54:39.690Z,31.13
2018-02-06T16:57:13.240Z,35.03
2018-02-06T16:59:47.790Z,30.13
2018-02-06T17:02:36.690Z,30.47
2018-02-06T17:05:09.631Z,41.23
2018-02-06T17:07:43.086Z,41.03
2018-02-06T17:10:16.632Z,56.37
2018-02-06T17:12:56.315Z,45.27
2018-02-06T17:15:30.714Z,48.13
2018-02-06T17:18:04.892Z,40.20
2018-02-06T17:20:38.597Z,44.33
2018-02-06T17:23:12.189Z,43.43
2018-02-06T17:25:46.211Z,43.73
2018-02-06T17:28:19.671Z,47.47
2018-02-06T17:30:53.033Z,49.63
2018-02-06T17:33:29.573Z,48.13
2018-02-06T17:36:02.846Z,51.63
2018-02-06T17:38:38.232Z,44.37
2018-02-06T17:41:11.546Z,55.50
2018-02-06T17:43:46.812Z,90.93
2018-02-06T17:46:20.249Z,130.97
2018-02-06T17:48:53.735Z,101.33
2018-02-06T17:51:27.901Z,67.67
2018-02-06T17:54:02.330Z,53.33
2018-02-06T17:56:35.749Z,45.93
2018-02-06T17:59:09.169Z,63.13
2018-02-06T18:01:42.456Z,74.37
2018-02-06T18:04:19.446Z,72.00
2018-02-06T18:06:53.223Z,56.10
2018-02-06T18:09:27.159Z,56.10
2018-02-06T18:12:03.273Z,52.70
2018-02-06T18:14:36.738Z,56.40
2018-02-06T18:17:10.209Z,36.93
2018-02-06T18:19:44.389Z,52.87
2018-02-06T18:22:18.714Z,52.50
2018-02-06T18:24:53.469Z,53.77
2018-02-06T18:27:26.473Z,42.70
2018-02-06T18:29:59.854Z,46.47
2018-02-06T18:32:37.312Z,36.03
2018-02-06T18:35:10.817Z,34.07
2018-02-06T18:37:44.026Z,32.80
2018-02-06T18:40:17.131Z,38.33
2018-02-06T18:42:55.590Z,35.03
2018-02-06T18:45:30.742Z,33.30
2018-02-06T18:48:04.024Z,33.17
2018-02-06T18:50:37.655Z,48.20
2018-02-06T18:53:11.154Z,36.73
2018-02-06T18:55:44.791Z,39.53
2018-02-06T18:58:18.081Z,36.13
2018-02-06T19:00:52.388Z,32.83
2018-02-06T19:03:29.782Z,36.07
2018-02-06T19:06:04.330Z,50.17
2018-02-06T19:08:38.059Z,41.47
2018-02-06T19:11:11.433Z,33.97
2018-02-06T19:13:45.153Z,29.70
2018-02-06T19:16:19.411Z,31.07
2018-02-06T19:18:52.872Z,30.77
2018-02-06T19:21:26.443Z,32.83
2018-02-06T19:23:59.904Z,36.07
2018-02-06T19:26:33.766Z,38.87
2018-02-06T19:29:06.831Z,36.03
2018-02-06T19:31:41.774Z,34.93
2018-02-06T19:34:15.079Z,34.20
2018-02-06T19:36:48.108Z,33.53
2018-02-06T19:39:21.550Z,30.70
2018-02-06T19:41:58.759Z,36.50
2018-02-06T19:44:32.603Z,30.50
2018-02-06T19:47:06.507Z,32.40
2018-02-06T19:49:39.487Z,33.03
2018-02-06T19:52:17.702Z,28.00
2018-02-06T19:54:50.887Z,29.20
2018-02-06T19:57:24.176Z,30.43
2018-02-06T19:59:57.583Z,33.00
2018-02-06T20:02:35.636Z,30.03
2018-02-06T20:05:09.476Z,28.20
2018-02-06T20:07:42.291Z,28.20
2018-02-06T20:10:15.326Z,28.00
2018-02-06T20:12:50.373Z,27.97
2018-02-06T20:15:25.106Z,26.33
2018-02-06T20:17:58.705Z,24.37
2018-02-06T20:20:32.099Z,24.73
2018-02-06T20:23:05.904Z,38.50
2018-02-06T20:25:39.702Z,27.83
2018-02-06T20:28:13.457Z,34.03
2018-02-06T20:30:48.936Z,37.37
2018-02-06T20:33:23.283Z,38.47
2018-02-06T20:35:56.985Z,34.33
2018-02-06T20:38:30.858Z,38.23
2018-02-06T20:41:03.802Z,37.77
2018-02-06T20:43:38.278Z,36.23
2018-02-06T20:46:11.935Z,35.93
2018-02-06T20:48:45.332Z,34.20
2018-02-06T20:51:18.850Z,34.00
2018-02-06T20:53:53.042Z,36.97
2018-02-06T20:56:26.523Z,37.37
2018-02-06T20:59:00.285Z,33.70
2018-02-06T21:01:33.804Z,34.70
2018-02-06T21:04:06.704Z,36.30
2018-02-06T21:06:33.692Z,31.60
2018-02-06T21:09:01.526Z,45.07
2018-02-06T21:11:29.502Z,45.43
2018-02-06T21:13:56.400Z,43.30
2018-02-06T21:16:23.477Z,34.50
2018-02-06T21:18:50.502Z,23.43
2018-02-06T21:21:18.556Z,20.87
2018-02-06T21:23:45.437Z,56.23
2018-02-06T21:26:12.551Z,50.03
2018-02-06T21:28:39.422Z,39.53
2018-02-06T21:31:06.540Z,39.37
2018-02-06T21:33:33.428Z,29.67
2018-02-06T21:36:15.270Z,33.67
2018-02-06T21:38:42.109Z,35.73
2018-02-06T21:41:12.088Z,37.40
2018-02-06T21:43:40.257Z,23.63
2018-02-06T21:46:07.461Z,25.67
2018-02-06T21:48:34.397Z,22.57
2018-02-06T21:51:01.440Z,23.53
2018-02-06T21:53:28.321Z,16.67
2018-02-06T21:55:55.394Z,19.77
2018-02-06T21:58:22.355Z,16.70
2018-02-06T22:00:49.314Z,16.03
2018-02-06T22:03:16.417Z,17.03
2018-02-06T22:05:43.452Z,17.50
2018-02-06T22:08:10.296Z,17.67
2018-02-06T22:10:37.224Z,16.50
2018-02-06T22:13:04.364Z,19.13
2018-02-06T22:15:31.277Z,15.80
2018-02-06T22:17:58.278Z,22.80
2018-02-06T22:20:25.406Z,18.13
2018-02-06T22:22:52.356Z,21.53
2018-02-06T22:25:19.578Z,26.93
2018-02-06T22:27:46.730Z,23.27
2018-02-06T22:30:13.578Z,20.70
2018-02-06T22:32:41.721Z,16.10
2018-02-06T22:35:08.536Z,17.03
2018-02-06T22:37:35.509Z,20.10
2018-02-06T22:40:02.416Z,17.70
2018-02-06T22:42:29.399Z,16.67
2018-02-06T22:44:59.428Z,22.93
2018-02-06T22:47:26.332Z,17.97
2018-02-06T22:49:53.625Z,14.17
2018-02-06T22:52:25.676Z,16.37
2018-02-06T22:54:52.579Z,14.70
2018-02-06T22:57:19.436Z,16.50
2018-02-06T22:59:46.344Z,16.23
2018-02-06T23:02:14.273Z,17.60
2018-02-06T23:04:41.154Z,14.97
2018-02-06T23:07:07.984Z,14.97
2018-02-06T23:09:34.837Z,14.57
2018-02-06T23:12:02.813Z,13.30
2018-02-06T23:14:29.632Z,13.80
2018-02-06T23:16:57.219Z,13.63
2018-02-06T23:19:24.796Z,19.07
2018-02-06T23:21:52.852Z,13.27
2018-02-06T23:24:19.667Z,13.17
2018-02-06T23:26:47.301Z,15.07
2018-02-06T23:29:14.200Z,11.23
2018-02-06T23:31:44.443Z,11.20
2018-02-06T23:34:11.458Z,11.77
2018-02-06T23:36:38.386Z,12.27
2018-02-06T23:39:05.539Z,19.37
2018-02-06T23:41:33.571Z,12.63
2018-02-06T23:44:00.503Z,13.33
2018-02-06T23:46:27.417Z,13.20
2018-02-06T23:48:54.249Z,15.60
2018-02-06T23:51:24.588Z,12.67
2018-02-06T23:53:51.451Z,11.03
2018-02-06T23:56:18.291Z,12.03
2018-02-06T23:58:45.116Z,15.17
